createdAt,value
2023-02-08T00:00:49.875Z,28.40
2023-02-08T00:03:16.664Z,35.30
2023-02-08T00:05:44.018Z,29.92
2023-02-08T00:08:10.868Z,25.77
2023-02-08T00:10:37.663Z,32.72
2023-02-08T00:13:07.981Z,29.95
2023-02-08T00:15:35.582Z,27.77
2023-02-08T00:18:02.440Z,33.33
2023-02-08T00:20:29.588Z,35.22
2023-02-08T00:22:56.592Z,37.38
2023-02-08T00:25:23.403Z,33.67
2023-02-08T00:27:50.287Z,36.13
2023-02-08T00:30:17.102Z,37.08
2023-02-08T00:32:43.908Z,35.22
2023-02-08T00:35:10.884Z,35.97
2023-02-08T00:37:37.632Z,33.83
2023-02-08T00:40:06.051Z,36.47
2023-02-08T00:42:33.267Z,30.42
2023-02-08T00:45:00.043Z,35.75
2023-02-08T00:47:26.784Z,29.33
2023-02-08T00:49:53.543Z,30.85
2023-02-08T00:52:20.937Z,28.45
2023-02-08T00:54:47.989Z,34.85
2023-02-08T00:57:16.074Z,34.95
2023-02-08T00:59:42.937Z,31.13
2023-02-08T01:02:09.847Z,30.80
2023-02-08T01:04:37.011Z,36.90
2023-02-08T01:07:04.791Z,32.83
2023-02-08T01:09:32.557Z,34.65
2023-02-08T01:11:59.705Z,39.78
2023-02-08T01:14:26.819Z,34.00
2023-02-08T01:16:53.770Z,34.30
2023-02-08T01:19:20.567Z,37.00
2023-02-08T01:21:49.203Z,40.97
2023-02-08T01:24:16.964Z,41.80
2023-02-08T01:26:43.797Z,37.30
2023-02-08T01:29:10.895Z,36.42
2023-02-08T01:31:39.962Z,38.00
2023-02-08T01:34:09.185Z,37.97
2023-02-08T01:36:37.237Z,39.80
2023-02-08T01:39:05.673Z,33.20
2023-02-08T01:41:44.510Z,37.83
2023-02-08T01:44:11.242Z,33.85
2023-02-08T01:46:46.335Z,38.10
2023-02-08T01:49:34.222Z,36.53
2023-02-08T01:52:09.985Z,33.65
2023-02-08T01:54:40.813Z,34.85
2023-02-08T01:57:08.165Z,32.45
2023-02-08T01:59:48.977Z,42.45
2023-02-08T02:02:19.575Z,39.65
2023-02-08T02:04:47.730Z,44.13
2023-02-08T02:07:16.214Z,45.78
2023-02-08T02:09:56.060Z,45.42
2023-02-08T02:12:23.449Z,46.47
2023-02-08T02:14:50.727Z,38.80
2023-02-08T02:17:19.600Z,39.60
2023-02-08T02:20:22.783Z,43.22
2023-02-08T02:22:59.591Z,38.45
2023-02-08T02:25:47.180Z,37.30
2023-02-08T02:28:28.829Z,43.25
2023-02-08T02:31:11.719Z,39.67
2023-02-08T02:34:04.510Z,41.45
2023-02-08T02:36:32.641Z,36.30
2023-02-08T02:39:15.345Z,37.47
2023-02-08T02:42:13.448Z,37.47
2023-02-08T02:44:58.067Z,40.28
2023-02-08T02:47:32.220Z,34.88
2023-02-08T02:50:40.719Z,36.28
2023-02-08T02:53:35.058Z,34.28
2023-02-08T02:56:24.296Z,37.45
2023-02-08T02:58:53.277Z,34.90
2023-02-08T03:01:30.254Z,37.22
2023-02-08T03:03:57.583Z,32.88
2023-02-08T03:06:58.630Z,35.17
2023-02-08T03:09:45.543Z,38.00
2023-02-08T03:12:46.572Z,38.03
2023-02-08T03:15:28.633Z,37.08
2023-02-08T03:17:58.127Z,39.28
2023-02-08T03:20:41.314Z,41.08
2023-02-08T03:23:28.279Z,33.60
2023-02-08T03:26:16.163Z,37.53
2023-02-08T03:29:17.423Z,41.45
2023-02-08T03:32:01.041Z,43.42
2023-02-08T03:34:53.992Z,48.17
2023-02-08T03:37:27.869Z,45.45
2023-02-08T03:40:02.877Z,49.42
2023-02-08T03:42:32.527Z,46.10
2023-02-08T03:45:10.056Z,48.10
2023-02-08T03:47:40.910Z,49.65
2023-02-08T03:50:11.541Z,44.38
2023-02-08T03:52:39.614Z,40.97
2023-02-08T03:55:12.503Z,47.00
2023-02-08T03:57:47.334Z,44.00
2023-02-08T04:00:16.945Z,40.25
2023-02-08T04:03:03.141Z,39.90
2023-02-08T04:05:30.005Z,47.70
2023-02-08T04:07:56.822Z,39.90
2023-02-08T04:10:23.665Z,35.83
2023-02-08T04:12:50.811Z,42.58
2023-02-08T04:15:17.947Z,38.80
2023-02-08T04:17:45.311Z,41.22
2023-02-08T04:20:12.428Z,40.30
2023-02-08T04:22:39.577Z,43.55
2023-02-08T04:25:06.483Z,35.78
2023-02-08T04:27:33.271Z,39.65
2023-02-08T04:29:59.978Z,42.97
2023-02-08T04:32:26.816Z,43.97
2023-02-08T04:34:53.711Z,37.33
2023-02-08T04:37:20.474Z,39.45
2023-02-08T04:39:47.238Z,38.55
2023-02-08T04:42:14.176Z,36.88
2023-02-08T04:44:41.040Z,41.08
2023-02-08T04:47:07.872Z,46.58
2023-02-08T04:49:34.970Z,46.13
2023-02-08T04:52:01.825Z,45.42
2023-02-08T04:54:28.814Z,41.00
2023-02-08T04:56:55.703Z,43.42
2023-02-08T04:59:23.123Z,38.20
2023-02-08T05:01:50.111Z,43.80
2023-02-08T05:04:17.237Z,42.08
2023-02-08T05:06:48.062Z,46.67
2023-02-08T05:09:15.620Z,45.88
2023-02-08T05:11:42.649Z,46.67
2023-02-08T05:14:09.433Z,40.83
2023-02-08T05:16:36.345Z,42.53
2023-02-08T05:19:03.210Z,48.80
2023-02-08T05:21:30.121Z,37.80
2023-02-08T05:23:57.042Z,40.08
2023-02-08T05:26:23.835Z,39.88
2023-02-08T05:28:50.714Z,39.75
2023-02-08T05:31:20.630Z,39.03
2023-02-08T05:33:49.467Z,41.80
2023-02-08T05:36:17.158Z,43.75
2023-02-08T05:38:43.962Z,41.03
2023-02-08T05:41:10.775Z,40.20
2023-02-08T05:43:37.521Z,36.78
2023-02-08T05:46:04.459Z,38.97
2023-02-08T05:48:31.989Z,38.10
2023-02-08T05:50:59.584Z,36.22
2023-02-08T05:53:27.394Z,42.95
2023-02-08T05:55:54.588Z,39.38
2023-02-08T05:58:21.356Z,40.55
2023-02-08T06:00:48.084Z,33.13
2023-02-08T06:03:14.933Z,41.55
2023-02-08T06:05:42.192Z,38.10
2023-02-08T06:08:09.228Z,38.33
2023-02-08T06:10:36.659Z,34.42
2023-02-08T06:13:04.797Z,43.45
2023-02-08T06:15:31.821Z,41.15
2023-02-08T06:17:58.596Z,40.88
2023-02-08T06:20:25.738Z,42.65
2023-02-08T06:22:52.567Z,39.03
2023-02-08T06:25:19.864Z,41.42
2023-02-08T06:27:46.928Z,44.17
2023-02-08T06:30:14.056Z,36.72
2023-02-08T06:32:41.009Z,31.38
2023-02-08T06:35:08.324Z,34.15
2023-02-08T06:37:35.300Z,38.45
2023-02-08T06:40:02.355Z,38.70
2023-02-08T06:42:29.207Z,40.47
2023-02-08T06:44:58.008Z,37.03
2023-02-08T06:47:26.604Z,33.53
2023-02-08T06:49:54.124Z,37.08
2023-02-08T06:52:21.775Z,35.38
2023-02-08T06:54:48.510Z,31.98
2023-02-08T06:57:15.685Z,33.63
2023-02-08T06:59:42.880Z,33.72
2023-02-08T07:02:15.246Z,33.13
2023-02-08T07:04:42.277Z,37.42
2023-02-08T07:07:09.029Z,35.80
2023-02-08T07:09:36.801Z,34.33
2023-02-08T07:12:05.399Z,36.92
2023-02-08T07:14:37.241Z,37.42
2023-02-08T07:17:04.357Z,41.40
2023-02-08T07:19:31.782Z,39.05
2023-02-08T07:22:08.079Z,40.38
2023-02-08T07:24:40.829Z,38.65
2023-02-08T07:27:09.982Z,42.40
2023-02-08T07:29:37.621Z,38.20
2023-02-08T07:32:06.628Z,46.67
2023-02-08T07:34:35.819Z,48.13
2023-02-08T07:37:03.017Z,41.35
2023-02-08T07:39:31.419Z,44.35
2023-02-08T07:41:58.908Z,45.78
2023-02-08T07:44:25.842Z,47.42
2023-02-08T07:46:54.966Z,42.38
2023-02-08T07:49:21.943Z,46.63
2023-02-08T07:51:49.036Z,41.35
2023-02-08T07:54:15.859Z,44.92
2023-02-08T07:56:42.878Z,43.42
2023-02-08T07:59:09.682Z,41.50
2023-02-08T08:01:36.647Z,38.95
2023-02-08T08:04:04.007Z,44.63
2023-02-08T08:06:31.147Z,38.28
2023-02-08T08:08:58.285Z,47.60
2023-02-08T08:11:25.091Z,39.22
2023-02-08T08:13:52.536Z,38.63
2023-02-08T08:16:22.903Z,42.85
2023-02-08T08:18:50.889Z,47.15
2023-02-08T08:21:18.194Z,39.63
2023-02-08T08:23:48.221Z,38.33
2023-02-08T08:26:20.982Z,36.10
2023-02-08T08:28:48.003Z,41.60
2023-02-08T08:31:21.226Z,48.85
2023-02-08T08:33:49.067Z,47.88
2023-02-08T08:36:15.950Z,46.50
2023-02-08T08:38:42.702Z,37.75
2023-02-08T08:41:22.148Z,44.85
2023-02-08T08:43:49.494Z,40.47
2023-02-08T08:46:16.828Z,46.78
2023-02-08T08:48:43.921Z,45.60
2023-02-08T08:51:10.992Z,40.30
2023-02-08T08:53:37.732Z,42.00
2023-02-08T08:56:06.301Z,46.83
2023-02-08T08:58:33.185Z,44.60
2023-02-08T09:01:01.013Z,43.42
2023-02-08T09:03:28.774Z,46.95
2023-02-08T09:05:56.459Z,45.28
2023-02-08T09:08:23.415Z,38.30
2023-02-08T09:10:50.646Z,41.42
2023-02-08T09:13:20.156Z,42.08
2023-02-08T09:15:49.067Z,37.30
2023-02-08T09:18:16.573Z,43.40
2023-02-08T09:20:44.245Z,45.65
2023-02-08T09:23:12.331Z,40.90
2023-02-08T09:25:39.313Z,37.90
2023-02-08T09:28:07.884Z,36.78
2023-02-08T09:30:34.810Z,37.95
2023-02-08T09:33:01.642Z,40.85
2023-02-08T09:35:28.793Z,39.70
2023-02-08T09:37:58.433Z,43.45
2023-02-08T09:40:32.006Z,46.17
2023-02-08T09:43:14.556Z,34.58
2023-02-08T09:46:02.734Z,36.97
2023-02-08T09:48:35.194Z,33.72
2023-02-08T09:51:28.504Z,32.28
2023-02-08T09:54:00.150Z,37.17
2023-02-08T09:56:36.375Z,43.53
2023-02-08T09:59:06.457Z,35.08
2023-02-08T10:01:39.480Z,33.75
2023-02-08T10:04:08.646Z,35.92
2023-02-08T10:06:35.522Z,39.63
2023-02-08T10:09:06.294Z,34.22
2023-02-08T10:11:58.181Z,33.97
2023-02-08T10:14:50.629Z,39.33
2023-02-08T10:17:42.896Z,31.63
2023-02-08T10:20:24.050Z,43.42
2023-02-08T10:23:20.470Z,36.67
2023-02-08T10:26:03.807Z,34.95
2023-02-08T10:29:16.902Z,42.45
2023-02-08T10:32:35.219Z,47.78
2023-02-08T10:35:17.781Z,60.22
2023-02-08T10:37:46.348Z,62.03
2023-02-08T10:40:21.019Z,65.72
2023-02-08T10:43:17.570Z,40.13
2023-02-08T10:46:01.944Z,32.58
2023-02-08T10:48:53.256Z,32.80
2023-02-08T10:51:21.766Z,27.95
2023-02-08T10:53:48.802Z,31.38
2023-02-08T10:56:33.276Z,25.38
2023-02-08T10:59:04.882Z,34.58
2023-02-08T11:01:32.296Z,36.30
2023-02-08T11:04:12.477Z,31.38
2023-02-08T11:06:41.415Z,33.85
2023-02-08T11:09:30.772Z,34.55
2023-02-08T11:12:00.720Z,32.10
2023-02-08T11:14:46.799Z,33.92
2023-02-08T11:17:34.015Z,33.33
2023-02-08T11:22:31.235Z,34.85
2023-02-08T11:25:05.661Z,36.72
2023-02-08T11:27:39.424Z,41.63
2023-02-08T11:30:15.971Z,38.08
2023-02-08T11:32:45.050Z,41.55
2023-02-08T11:35:26.498Z,34.30
2023-02-08T11:37:56.252Z,41.17
2023-02-08T11:40:28.381Z,35.55
2023-02-08T11:42:55.940Z,33.05
2023-02-08T11:45:37.278Z,34.78
2023-02-08T11:48:05.788Z,32.20
2023-02-08T11:50:38.267Z,33.80
2023-02-08T11:53:27.997Z,32.72
2023-02-08T11:56:07.737Z,36.88
2023-02-08T11:58:34.840Z,30.75
2023-02-08T12:01:06.457Z,37.42
2023-02-08T12:03:38.422Z,33.67
2023-02-08T12:06:43.065Z,32.55
2023-02-08T12:09:09.801Z,29.33
2023-02-08T12:11:49.004Z,26.27
2023-02-08T12:14:34.555Z,28.00
2023-02-08T12:17:16.594Z,22.30
2023-02-08T12:20:10.576Z,23.85
2023-02-08T12:22:42.055Z,31.77
